createdAt,value
2022-10-09T00:00:33.132Z,0.00
2022-10-09T00:01:33.034Z,0.00
2022-10-09T00:02:33.362Z,0.00
2022-10-09T00:03:32.904Z,0.00
2022-10-09T00:04:32.856Z,0.00
2022-10-09T00:05:32.897Z,0.00
2022-10-09T00:06:32.712Z,0.00
2022-10-09T00:07:32.649Z,0.00
2022-10-09T00:08:32.611Z,0.00
2022-10-09T00:09:32.543Z,0.00
2022-10-09T00:10:32.456Z,0.00
2022-10-09T00:11:32.404Z,0.00
2022-10-09T00:12:32.338Z,0.00
2022-10-09T00:13:32.279Z,0.00
2022-10-09T00:14:34.527Z,0.00
2022-10-09T00:15:32.138Z,0.00
2022-10-09T00:16:32.103Z,0.00
2022-10-09T00:17:32.005Z,0.00
2022-10-09T00:18:31.957Z,0.00
2022-10-09T00:19:31.875Z,0.00
2022-10-09T00:20:32.600Z,0.00
2022-10-09T00:21:31.757Z,0.00
2022-10-09T00:22:31.704Z,0.00
2022-10-09T00:23:31.636Z,0.00
2022-10-09T00:24:31.570Z,0.00
2022-10-09T00:25:31.507Z,0.00
2022-10-09T00:26:31.438Z,0.00
2022-10-09T00:27:31.378Z,0.00
2022-10-09T00:28:35.295Z,0.00
2022-10-09T00:29:31.243Z,0.00
2022-10-09T00:30:31.264Z,0.00
2022-10-09T00:31:31.124Z,0.00
2022-10-09T00:32:31.049Z,0.00
2022-10-09T00:33:30.980Z,0.00
2022-10-09T00:34:30.929Z,0.00
2022-10-09T00:35:30.856Z,0.00
2022-10-09T00:36:30.824Z,0.00
2022-10-09T00:37:30.730Z,0.00
2022-10-09T00:38:30.973Z,0.00
2022-10-09T00:39:30.602Z,0.00
2022-10-09T00:40:30.542Z,0.00
2022-10-09T00:41:30.479Z,0.00
2022-10-09T00:42:30.419Z,0.00
2022-10-09T00:43:30.338Z,0.00
2022-10-09T00:44:30.287Z,0.00
2022-10-09T00:45:30.202Z,0.00
2022-10-09T00:46:30.213Z,0.00
2022-10-09T00:47:30.112Z,0.00
2022-10-09T00:48:30.010Z,0.00
2022-10-09T00:49:29.947Z,0.00
2022-10-09T00:50:29.896Z,0.00
2022-10-09T00:51:29.817Z,0.00
2022-10-09T00:52:29.769Z,0.00
2022-10-09T00:53:29.690Z,0.00
2022-10-09T00:54:29.637Z,0.00
2022-10-09T00:55:29.582Z,0.00
2022-10-09T00:56:31.847Z,0.00
2022-10-09T00:57:29.453Z,0.00
2022-10-09T00:58:29.373Z,0.00
2022-10-09T00:59:29.323Z,0.00
2022-10-09T01:00:29.263Z,0.00
2022-10-09T01:01:29.214Z,0.00
2022-10-09T01:02:30.044Z,0.00
2022-10-09T01:03:29.067Z,0.00
2022-10-09T01:04:28.985Z,0.00
2022-10-09T01:05:28.925Z,0.00
2022-10-09T01:06:28.824Z,1.00
2022-10-09T01:07:28.749Z,1.00
2022-10-09T01:08:32.100Z,2.00
2022-10-09T01:09:28.613Z,2.00
2022-10-09T01:10:28.559Z,2.00
2022-10-09T01:11:28.493Z,2.00
2022-10-09T01:12:28.432Z,2.00
2022-10-09T01:13:28.356Z,1.00
2022-10-09T01:14:28.368Z,0.00
2022-10-09T01:15:28.313Z,0.00
2022-10-09T01:16:28.217Z,0.00
2022-10-09T01:17:28.169Z,0.00
2022-10-09T01:18:28.101Z,0.00
2022-10-09T01:19:28.033Z,0.00
2022-10-09T01:20:28.745Z,0.00
2022-10-09T01:21:27.909Z,0.00
2022-10-09T01:22:27.844Z,0.00
2022-10-09T01:23:27.787Z,0.00
2022-10-09T01:24:27.710Z,0.00
2022-10-09T01:25:27.633Z,0.00
2022-10-09T01:26:27.592Z,0.00
2022-10-09T01:27:27.512Z,0.00
2022-10-09T01:28:27.484Z,0.00
2022-10-09T01:29:27.392Z,0.00
2022-10-09T01:30:27.335Z,0.00
2022-10-09T01:31:27.324Z,0.00
2022-10-09T01:32:28.391Z,0.00
2022-10-09T01:33:27.132Z,0.00
2022-10-09T01:34:27.068Z,0.00
2022-10-09T01:35:27.011Z,0.00
2022-10-09T01:36:26.941Z,0.00
2022-10-09T01:37:26.885Z,0.00
2022-10-09T01:38:27.095Z,0.00
2022-10-09T01:39:26.737Z,0.00
2022-10-09T01:40:26.680Z,0.00
2022-10-09T01:41:26.616Z,0.00
2022-10-09T01:42:26.553Z,0.00
2022-10-09T01:43:26.480Z,0.00
2022-10-09T01:44:27.192Z,0.00
2022-10-09T01:45:26.360Z,0.00
2022-10-09T01:46:26.376Z,0.00
2022-10-09T01:47:26.239Z,0.00
2022-10-09T01:48:26.173Z,0.00
2022-10-09T01:49:26.103Z,0.00
2022-10-09T01:50:27.246Z,0.00
2022-10-09T01:51:25.960Z,0.00
2022-10-09T01:52:25.915Z,0.00
2022-10-09T01:53:25.851Z,0.00
2022-10-09T01:54:25.786Z,0.00
2022-10-09T01:55:25.732Z,0.00
2022-10-09T01:56:25.658Z,0.00
2022-10-09T01:57:25.590Z,0.00
2022-10-09T01:58:25.523Z,0.00
2022-10-09T01:59:25.481Z,0.00
2022-10-09T02:00:25.389Z,0.00
2022-10-09T02:01:25.400Z,0.00
2022-10-09T02:02:25.293Z,0.00
2022-10-09T02:03:25.214Z,0.00
2022-10-09T02:04:25.130Z,0.00
2022-10-09T02:05:25.080Z,0.00
2022-10-09T02:06:25.001Z,0.00
2022-10-09T02:07:24.955Z,0.00
2022-10-09T02:08:24.910Z,0.00
2022-10-09T02:09:24.837Z,0.00
2022-10-09T02:10:24.760Z,0.00
2022-10-09T02:11:24.681Z,0.00
2022-10-09T02:12:24.627Z,0.00
2022-10-09T02:13:24.564Z,0.00
2022-10-09T02:14:25.979Z,0.00
2022-10-09T02:15:24.436Z,0.00
2022-10-09T02:16:24.417Z,0.00
2022-10-09T02:17:24.334Z,0.00
2022-10-09T02:18:24.248Z,0.00
2022-10-09T02:19:24.183Z,0.00
2022-10-09T02:20:24.120Z,0.00
2022-10-09T02:21:24.073Z,0.00
2022-10-09T02:22:23.988Z,0.00
2022-10-09T02:23:23.914Z,0.00
2022-10-09T02:24:23.844Z,0.00
2022-10-09T02:25:23.787Z,0.00
2022-10-09T02:26:24.517Z,0.00
2022-10-09T02:27:23.720Z,0.00
2022-10-09T02:28:23.606Z,0.00
2022-10-09T02:29:23.536Z,0.00
2022-10-09T02:30:23.465Z,0.00
2022-10-09T02:31:23.444Z,0.00
2022-10-09T02:32:24.151Z,0.00
2022-10-09T02:33:23.259Z,0.00
2022-10-09T02:34:23.195Z,0.00
2022-10-09T02:35:23.145Z,0.00
2022-10-09T02:36:23.082Z,0.00
2022-10-09T02:37:23.016Z,0.00
2022-10-09T02:38:24.013Z,0.00
2022-10-09T02:39:22.889Z,0.00
2022-10-09T02:40:22.830Z,0.00
2022-10-09T02:41:22.772Z,0.00
2022-10-09T02:42:22.691Z,0.00
2022-10-09T02:43:22.658Z,0.00
2022-10-09T02:44:24.071Z,0.00
2022-10-09T02:45:22.507Z,0.00
2022-10-09T02:46:22.489Z,0.00
2022-10-09T02:47:22.360Z,0.00
2022-10-09T02:48:22.314Z,0.00
2022-10-09T02:49:22.250Z,0.00
2022-10-09T02:50:22.966Z,0.00
2022-10-09T02:51:22.144Z,0.00
2022-10-09T02:52:22.056Z,0.00
2022-10-09T02:53:22.047Z,0.00
2022-10-09T02:54:21.926Z,0.00
2022-10-09T02:55:21.845Z,0.00
2022-10-09T02:56:21.816Z,0.00
2022-10-09T02:57:21.724Z,0.00
2022-10-09T02:58:21.666Z,0.00
2022-10-09T02:59:21.605Z,0.00
2022-10-09T03:00:21.541Z,0.00
2022-10-09T03:01:21.532Z,0.00
2022-10-09T03:02:22.355Z,0.00
2022-10-09T03:03:21.335Z,0.00
2022-10-09T03:04:21.263Z,0.00
2022-10-09T03:05:21.203Z,0.00
2022-10-09T03:06:21.150Z,0.00
2022-10-09T03:07:21.091Z,0.00
2022-10-09T03:08:21.843Z,0.00
2022-10-09T03:09:20.952Z,0.00
2022-10-09T03:10:20.917Z,0.00
2022-10-09T03:11:20.832Z,0.00
2022-10-09T03:12:20.755Z,0.00
2022-10-09T03:13:20.717Z,0.00
2022-10-09T03:14:22.131Z,0.00
2022-10-09T03:15:20.606Z,0.00
2022-10-09T03:16:20.613Z,0.00
2022-10-09T03:17:20.435Z,0.00
2022-10-09T03:18:20.386Z,0.00
2022-10-09T03:19:20.300Z,0.00
2022-10-09T03:20:20.527Z,0.00
2022-10-09T03:21:20.188Z,0.00
2022-10-09T03:22:20.126Z,0.00
2022-10-09T03:23:20.055Z,0.00
2022-10-09T03:24:19.997Z,0.00
2022-10-09T03:25:19.925Z,0.00
2022-10-09T03:26:21.427Z,0.00
2022-10-09T03:27:19.798Z,0.00
2022-10-09T03:28:19.869Z,0.00
2022-10-09T03:29:19.669Z,0.00
2022-10-09T03:30:19.590Z,0.00
2022-10-09T03:31:46.516Z,0.00
2022-10-09T03:32:19.527Z,0.00
2022-10-09T03:33:19.411Z,0.00
2022-10-09T03:34:19.337Z,0.00
2022-10-09T03:35:19.325Z,0.00
2022-10-09T03:36:19.269Z,0.00
2022-10-09T03:37:19.145Z,0.00
2022-10-09T03:38:20.995Z,0.00
2022-10-09T03:39:19.018Z,0.00
2022-10-09T03:40:18.947Z,0.00
2022-10-09T03:41:18.932Z,0.00
2022-10-09T03:42:18.841Z,0.00
2022-10-09T03:43:18.770Z,0.00
2022-10-09T03:44:18.714Z,0.00
2022-10-09T03:45:18.636Z,0.00
2022-10-09T03:46:18.621Z,0.00
2022-10-09T03:47:18.514Z,0.00
2022-10-09T03:48:18.431Z,0.00
2022-10-09T03:49:18.378Z,0.00
2022-10-09T03:50:19.848Z,0.00
2022-10-09T03:51:18.257Z,0.00
2022-10-09T03:52:18.188Z,0.00
2022-10-09T03:53:18.128Z,0.00
2022-10-09T03:54:18.063Z,0.00
2022-10-09T03:55:17.998Z,0.00
2022-10-09T03:56:18.782Z,0.00
2022-10-09T03:57:17.900Z,0.00
2022-10-09T03:58:17.801Z,0.00
2022-10-09T03:59:17.727Z,0.00
2022-10-09T04:00:17.672Z,0.00
2022-10-09T04:01:17.651Z,0.00
2022-10-09T04:02:17.609Z,0.00
2022-10-09T04:03:17.470Z,0.00
2022-10-09T04:04:17.411Z,0.00
2022-10-09T04:05:17.356Z,0.00
2022-10-09T04:06:17.296Z,0.00
2022-10-09T04:07:17.225Z,0.00
2022-10-09T04:08:17.167Z,0.00
2022-10-09T04:09:17.098Z,0.00
2022-10-09T04:10:17.016Z,0.00
2022-10-09T04:11:16.957Z,0.00
2022-10-09T04:12:16.894Z,0.00
2022-10-09T04:13:16.832Z,0.00
2022-10-09T04:14:16.785Z,0.00
2022-10-09T04:15:16.695Z,0.00
2022-10-09T04:16:16.744Z,0.00
2022-10-09T04:17:16.562Z,0.00
2022-10-09T04:18:16.496Z,0.00
2022-10-09T04:19:16.439Z,0.00
2022-10-09T04:20:16.387Z,0.00
2022-10-09T04:21:16.322Z,0.00
2022-10-09T04:22:16.241Z,0.00
2022-10-09T04:23:16.176Z,0.00
2022-10-09T04:24:16.135Z,0.00
2022-10-09T04:25:16.067Z,0.00
2022-10-09T04:26:16.023Z,0.00
2022-10-09T04:27:15.923Z,0.00
2022-10-09T04:28:15.921Z,0.00
2022-10-09T04:29:15.800Z,0.00
2022-10-09T04:30:15.730Z,0.00
2022-10-09T04:31:15.726Z,0.00
2022-10-09T04:32:15.631Z,0.00
2022-10-09T04:33:15.538Z,0.00
2022-10-09T04:34:15.474Z,0.00
2022-10-09T04:35:15.437Z,0.00
2022-10-09T04:36:15.348Z,0.00
2022-10-09T04:37:15.283Z,0.00
2022-10-09T04:38:16.271Z,0.00
2022-10-09T04:39:15.152Z,0.00
2022-10-09T04:40:15.092Z,0.00
2022-10-09T04:41:15.034Z,0.00
2022-10-09T04:42:14.965Z,0.00
2022-10-09T04:43:14.882Z,0.00
2022-10-09T04:44:14.843Z,0.00
2022-10-09T04:45:14.781Z,0.00
2022-10-09T04:46:14.796Z,0.00
2022-10-09T04:47:14.647Z,0.00
2022-10-09T04:48:14.609Z,0.00
2022-10-09T04:49:14.513Z,0.00
2022-10-09T04:50:14.487Z,0.00
2022-10-09T04:51:14.382Z,0.00
2022-10-09T04:52:14.322Z,0.00
2022-10-09T04:53:14.241Z,0.00
2022-10-09T04:54:14.190Z,0.00
2022-10-09T04:55:14.108Z,0.00
2022-10-09T04:56:17.186Z,0.00
2022-10-09T04:57:13.988Z,0.00
2022-10-09T04:58:13.916Z,0.00
2022-10-09T04:59:13.851Z,0.00
2022-10-09T05:00:13.783Z,0.00
2022-10-09T05:01:13.790Z,0.00
2022-10-09T05:02:13.690Z,1.00
2022-10-09T05:03:13.603Z,0.00
2022-10-09T05:04:13.495Z,1.00
2022-10-09T05:05:13.412Z,1.00
2022-10-09T05:06:13.398Z,0.00
2022-10-09T05:07:13.351Z,0.00
2022-10-09T05:08:13.276Z,0.00
2022-10-09T05:09:13.231Z,0.00
2022-10-09T05:10:13.102Z,1.00
2022-10-09T05:11:13.118Z,0.00
2022-10-09T05:12:13.023Z,0.00
2022-10-09T05:13:12.902Z,4.00
2022-10-09T05:14:12.844Z,4.00
2022-10-09T05:15:12.775Z,3.00
2022-10-09T05:16:12.786Z,2.00
2022-10-09T05:17:14.543Z,1.00
2022-10-09T05:18:12.581Z,3.00
2022-10-09T05:19:12.521Z,4.00
2022-10-09T05:20:12.467Z,3.00
2022-10-09T05:21:12.388Z,6.00
2022-10-09T05:22:12.365Z,6.00
2022-10-09T05:23:12.259Z,10.00
2022-10-09T05:24:12.192Z,11.00
2022-10-09T05:25:12.132Z,11.00
2022-10-09T05:26:12.841Z,12.00
2022-10-09T05:27:11.984Z,14.00
2022-10-09T05:28:11.997Z,10.00
2022-10-09T05:29:11.857Z,14.00
2022-10-09T05:30:11.811Z,21.00
2022-10-09T05:31:11.791Z,24.00
2022-10-09T05:32:13.605Z,28.00
2022-10-09T05:33:11.613Z,30.00
2022-10-09T05:34:11.570Z,30.00
2022-10-09T05:35:11.486Z,41.00
2022-10-09T05:36:11.439Z,41.00
2022-10-09T05:37:11.340Z,51.00
2022-10-09T05:38:11.555Z,51.00
2022-10-09T05:39:11.225Z,56.00
2022-10-09T05:40:11.158Z,58.00
2022-10-09T05:41:11.095Z,62.00
2022-10-09T05:42:11.019Z,64.00
2022-10-09T05:43:10.952Z,65.00
2022-10-09T05:44:10.908Z,73.00
2022-10-09T05:45:10.824Z,72.00
2022-10-09T05:46:10.818Z,87.00
2022-10-09T05:47:10.711Z,87.00
2022-10-09T05:48:10.641Z,98.00
2022-10-09T05:49:10.563Z,107.00
2022-10-09T05:50:10.533Z,113.00
2022-10-09T05:51:10.448Z,112.00
2022-10-09T05:52:10.416Z,117.00
2022-10-09T05:53:10.329Z,133.00
2022-10-09T05:54:10.281Z,132.00
2022-10-09T05:55:10.185Z,150.00
2022-10-09T05:56:10.114Z,148.00
2022-10-09T05:57:10.084Z,154.00
2022-10-09T05:58:09.982Z,168.00
2022-10-09T05:59:09.927Z,171.00
2022-10-09T06:00:09.851Z,184.00
2022-10-09T06:01:09.939Z,170.00
2022-10-09T06:02:12.177Z,171.00
2022-10-09T06:03:09.668Z,190.00
2022-10-09T06:04:09.596Z,159.00
2022-10-09T06:05:09.538Z,204.00
2022-10-09T06:06:09.465Z,281.00
2022-10-09T06:07:09.398Z,287.00
2022-10-09T06:08:09.394Z,262.00
2022-10-09T06:09:09.268Z,263.00
2022-10-09T06:10:09.213Z,323.00
2022-10-09T06:11:09.139Z,290.00
2022-10-09T06:12:09.076Z,329.00
2022-10-09T06:13:09.020Z,332.00
2022-10-09T06:14:08.958Z,365.00
2022-10-09T06:15:08.898Z,377.00
2022-10-09T06:16:08.825Z,389.00
2022-10-09T06:17:08.776Z,366.00
2022-10-09T06:18:08.687Z,419.00
2022-10-09T06:19:08.635Z,423.00
2022-10-09T06:20:10.098Z,407.00
2022-10-09T06:21:08.507Z,465.00
2022-10-09T06:22:08.437Z,466.00
2022-10-09T06:23:08.362Z,428.00
2022-10-09T06:24:08.309Z,425.00
2022-10-09T06:25:08.251Z,494.00
2022-10-09T06:26:08.189Z,520.00
2022-10-09T06:27:08.109Z,525.00
2022-10-09T06:28:08.124Z,487.00
2022-10-09T06:29:07.977Z,517.00
2022-10-09T06:30:07.915Z,599.00
2022-10-09T06:31:07.923Z,516.00
2022-10-09T06:32:07.856Z,530.00
2022-10-09T06:33:07.721Z,540.00
2022-10-09T06:34:07.650Z,455.00
2022-10-09T06:35:08.347Z,552.00
2022-10-09T06:36:10.231Z,608.00
2022-10-09T06:37:07.479Z,630.00
2022-10-09T06:38:09.803Z,577.00
2022-10-09T06:39:07.333Z,584.00
2022-10-09T06:40:07.266Z,478.00
2022-10-09T06:41:07.196Z,635.00
2022-10-09T06:42:07.153Z,635.00
2022-10-09T06:43:07.087Z,586.00
2022-10-09T06:44:07.827Z,677.00
2022-10-09T06:45:06.950Z,729.00
2022-10-09T06:46:06.972Z,786.00
2022-10-09T06:47:06.810Z,753.00
2022-10-09T06:48:06.742Z,753.00
2022-10-09T06:49:06.699Z,649.00
2022-10-09T06:50:07.829Z,711.00
2022-10-09T06:51:06.557Z,591.00
2022-10-09T06:52:06.511Z,812.00
2022-10-09T06:53:06.437Z,553.00
2022-10-09T06:54:06.384Z,851.00
2022-10-09T06:55:06.329Z,662.00
2022-10-09T06:56:06.319Z,803.00
2022-10-09T06:57:06.186Z,803.00
2022-10-09T06:58:06.103Z,697.00
2022-10-09T06:59:06.067Z,758.00
2022-10-09T07:00:05.978Z,799.00
2022-10-09T07:01:05.981Z,717.00
2022-10-09T07:02:05.927Z,808.00
2022-10-09T07:03:05.848Z,700.00
2022-10-09T07:04:05.730Z,816.00
2022-10-09T07:05:05.650Z,808.00
2022-10-09T07:06:05.590Z,987.00
2022-10-09T07:07:05.528Z,798.00
2022-10-09T07:08:06.717Z,822.00
2022-10-09T07:09:05.407Z,800.00
2022-10-09T07:10:05.337Z,908.00
2022-10-09T07:11:05.287Z,999.00
2022-10-09T07:12:05.217Z,972.00
2022-10-09T07:13:05.147Z,1062.00
2022-10-09T07:14:05.907Z,999.00
2022-10-09T07:15:05.014Z,1067.00
2022-10-09T07:16:05.258Z,936.00
2022-10-09T07:17:04.881Z,1141.00
2022-10-09T07:18:04.824Z,1025.00
2022-10-09T07:19:04.760Z,1167.00
2022-10-09T07:20:04.703Z,1144.00
2022-10-09T07:21:04.628Z,1120.00
2022-10-09T07:22:04.570Z,1095.00
2022-10-09T07:23:04.500Z,1160.00
2022-10-09T07:24:04.428Z,1018.00
2022-10-09T07:25:04.355Z,1185.00
2022-10-09T07:26:04.320Z,1199.00
2022-10-09T07:27:04.226Z,1254.00
2022-10-09T07:28:04.222Z,1154.00
2022-10-09T07:29:04.123Z,1188.00
2022-10-09T07:30:04.038Z,1340.00
2022-10-09T07:31:04.026Z,1429.00
2022-10-09T07:32:10.229Z,1474.00
2022-10-09T07:33:03.898Z,1430.00
2022-10-09T07:34:03.795Z,1618.00
2022-10-09T07:35:03.715Z,1696.00
2022-10-09T07:36:03.681Z,1407.00
2022-10-09T07:37:03.601Z,1342.00
2022-10-09T07:38:03.550Z,1290.00
2022-10-09T07:39:03.458Z,1324.00
2022-10-09T07:40:03.398Z,1263.00
2022-10-09T07:41:03.427Z,1320.00
2022-10-09T07:42:03.278Z,1375.00
2022-10-09T07:43:03.230Z,1323.00
2022-10-09T07:44:05.552Z,1527.00
2022-10-09T07:45:03.092Z,1375.00
2022-10-09T07:46:03.075Z,1544.00
2022-10-09T07:47:02.936Z,1708.00
2022-10-09T07:48:02.876Z,1581.00
2022-10-09T07:49:02.813Z,1616.00
2022-10-09T07:50:03.529Z,1583.00
2022-10-09T07:51:02.677Z,1123.00
2022-10-09T07:52:02.657Z,1927.00
2022-10-09T07:53:02.611Z,934.00
2022-10-09T07:54:02.517Z,2108.00
2022-10-09T07:55:02.422Z,1320.00
2022-10-09T07:56:03.573Z,1900.00
2022-10-09T07:57:02.305Z,1657.00
2022-10-09T07:58:02.228Z,1831.00
2022-10-09T07:59:02.166Z,1652.00
2022-10-09T08:00:02.100Z,1882.00
2022-10-09T08:01:02.092Z,1746.00
2022-10-09T08:02:02.072Z,1868.00
2022-10-09T08:03:01.942Z,1855.00
2022-10-09T08:04:01.844Z,1805.00
2022-10-09T08:05:01.779Z,2011.00
2022-10-09T08:06:01.729Z,2111.00
2022-10-09T08:07:01.659Z,2281.00
2022-10-09T08:08:01.598Z,2067.00
2022-10-09T08:09:01.518Z,2306.00
2022-10-09T08:10:01.455Z,2501.00
2022-10-09T08:11:01.390Z,2026.00
2022-10-09T08:12:01.336Z,2341.00
2022-10-09T08:13:01.265Z,1838.00
2022-10-09T08:14:01.221Z,2033.00
2022-10-09T08:15:01.139Z,2650.00
2022-10-09T08:16:01.143Z,1780.00
2022-10-09T08:17:01.008Z,2563.00
2022-10-09T08:18:00.958Z,1484.00
2022-10-09T08:19:00.885Z,2449.00
2022-10-09T08:20:01.656Z,1611.00
2022-10-09T08:21:00.769Z,1739.00
2022-10-09T08:22:03.491Z,2582.00
2022-10-09T08:23:00.637Z,1333.00
2022-10-09T08:24:00.567Z,2283.00
2022-10-09T08:25:00.504Z,2123.00
2022-10-09T08:26:01.634Z,2173.00
2022-10-09T08:27:00.428Z,1976.00
2022-10-09T08:28:00.316Z,2951.00
2022-10-09T08:29:00.253Z,2503.00
2022-10-09T08:30:00.199Z,2550.00
2022-10-09T08:31:00.177Z,2892.00
2022-10-09T08:32:00.081Z,2786.00
2022-10-09T08:32:59.994Z,2548.00
2022-10-09T08:33:59.924Z,2380.00
2022-10-09T08:34:59.883Z,2671.00
2022-10-09T08:35:59.792Z,2939.00
2022-10-09T08:36:59.735Z,2938.00
2022-10-09T08:38:02.079Z,2871.00
2022-10-09T08:38:59.612Z,2914.00
2022-10-09T08:39:59.537Z,2894.00
2022-10-09T08:40:59.486Z,3238.00
2022-10-09T08:41:59.408Z,3626.00
2022-10-09T08:42:59.345Z,3550.00
2022-10-09T08:43:59.293Z,3366.00
2022-10-09T08:44:59.221Z,3672.00
2022-10-09T08:45:59.227Z,3492.00
2022-10-09T08:46:59.079Z,3278.00
2022-10-09T08:47:59.011Z,2942.00
2022-10-09T08:48:58.969Z,2993.00
2022-10-09T08:50:00.355Z,2940.00
2022-10-09T08:50:58.824Z,2766.00
2022-10-09T08:51:58.767Z,2292.00
2022-10-09T08:52:58.703Z,1944.00
2022-10-09T08:53:58.633Z,1845.00
2022-10-09T08:54:58.566Z,1712.00
2022-10-09T08:55:58.528Z,1849.00
2022-10-09T08:56:58.451Z,1817.00
2022-10-09T08:57:58.374Z,1683.00
2022-10-09T08:58:58.311Z,1776.00
2022-10-09T08:59:58.246Z,1695.00
2022-10-09T09:00:58.179Z,1692.00
2022-10-09T09:01:58.179Z,1679.00
2022-10-09T09:02:58.158Z,1665.00
2022-10-09T09:03:57.986Z,1702.00
2022-10-09T09:04:57.977Z,1730.00
2022-10-09T09:05:57.880Z,2089.00
2022-10-09T09:06:57.799Z,2008.00
2022-10-09T09:07:57.757Z,1789.00
2022-10-09T09:08:57.682Z,1764.00
2022-10-09T09:09:57.616Z,1745.00
2022-10-09T09:10:57.549Z,1747.00
2022-10-09T09:11:57.492Z,1744.00
2022-10-09T09:12:57.421Z,1720.00
2022-10-09T09:13:57.390Z,1750.00
2022-10-09T09:14:57.279Z,1754.00
2022-10-09T09:15:57.258Z,1751.00
2022-10-09T09:16:57.151Z,1789.00
2022-10-09T09:17:57.091Z,1749.00
2022-10-09T09:18:57.039Z,1859.00
2022-10-09T09:19:56.969Z,1964.00
2022-10-09T09:20:56.907Z,2050.00
2022-10-09T09:21:56.849Z,1933.00
2022-10-09T09:22:56.785Z,1953.00
2022-10-09T09:23:56.726Z,1561.00
2022-10-09T09:24:56.679Z,1645.00
2022-10-09T09:25:56.591Z,3246.00
2022-10-09T09:26:56.575Z,2617.00
2022-10-09T09:27:56.477Z,2067.00
2022-10-09T09:28:56.445Z,1841.00
2022-10-09T09:29:56.320Z,698.00
2022-10-09T09:30:56.300Z,3702.00
2022-10-09T09:31:57.806Z,3459.00
2022-10-09T09:32:56.125Z,2913.00
2022-10-09T09:33:56.060Z,2429.00
2022-10-09T09:34:56.006Z,2241.00
2022-10-09T09:35:55.930Z,2258.00
2022-10-09T09:36:55.871Z,2249.00
2022-10-09T09:37:57.348Z,2052.00
2022-10-09T09:39:45.547Z,2001.00
2022-10-09T09:40:36.725Z,1971.00
2022-10-09T09:40:55.620Z,2026.00
2022-10-09T09:41:55.562Z,2076.00
2022-10-09T09:42:55.495Z,2067.00
2022-10-09T09:43:56.643Z,2064.00
2022-10-09T09:44:55.370Z,2091.00
2022-10-09T09:45:55.294Z,2049.00
2022-10-09T09:46:55.303Z,2069.00
2022-10-09T09:47:55.176Z,2078.00
2022-10-09T09:48:55.104Z,2086.00
2022-10-09T09:49:55.055Z,2078.00
2022-10-09T09:51:16.261Z,2093.00
2022-10-09T09:51:54.921Z,2056.00
2022-10-09T09:52:54.843Z,2062.00
2022-10-09T09:53:54.785Z,2072.00
2022-10-09T09:54:54.726Z,2085.00
2022-10-09T09:55:57.298Z,2091.00
2022-10-09T09:57:11.866Z,2064.00
2022-10-09T09:57:54.528Z,2153.00
2022-10-09T09:58:54.468Z,2204.00
2022-10-09T09:59:54.405Z,2257.00
2022-10-09T10:00:54.409Z,2219.00
2022-10-09T10:01:55.054Z,2219.00
2022-10-09T10:02:54.198Z,2283.00
2022-10-09T10:03:54.148Z,2393.00
2022-10-09T10:04:54.267Z,2544.00
2022-10-09T10:05:54.005Z,2706.00
2022-10-09T10:06:53.940Z,3022.00
2022-10-09T10:07:53.886Z,3243.00
2022-10-09T10:08:53.812Z,3365.00
2022-10-09T10:09:53.751Z,3464.00
2022-10-09T10:10:53.695Z,3708.00
2022-10-09T10:11:53.611Z,3833.00
2022-10-09T10:12:53.560Z,3822.00
2022-10-09T10:13:54.250Z,3844.00
2022-10-09T10:14:53.499Z,3636.00
2022-10-09T10:15:53.414Z,3442.00
2022-10-09T10:16:53.296Z,3389.00
2022-10-09T10:17:53.248Z,3362.00
2022-10-09T10:18:53.196Z,3353.00
2022-10-09T10:19:53.103Z,3398.00
2022-10-09T10:20:53.037Z,3427.00
2022-10-09T10:21:52.992Z,3430.00
2022-10-09T10:22:52.912Z,3372.00
2022-10-09T10:23:52.876Z,3337.00
2022-10-09T10:24:52.848Z,3322.00
2022-10-09T10:25:53.943Z,3336.00
2022-10-09T10:26:52.649Z,3290.00
2022-10-09T10:27:52.596Z,3412.00
2022-10-09T10:28:52.523Z,3670.00
2022-10-09T10:29:52.473Z,3672.00
2022-10-09T10:30:52.403Z,3381.00
2022-10-09T10:31:52.347Z,3354.00
2022-10-09T10:32:52.266Z,3239.00
2022-10-09T10:33:52.201Z,3312.00
2022-10-09T10:34:52.251Z,3353.00
2022-10-09T10:35:52.077Z,3287.00
2022-10-09T10:36:52.004Z,3216.00
2022-10-09T10:37:54.314Z,3226.00
2022-10-09T10:38:51.882Z,3031.00
2022-10-09T10:39:51.821Z,3131.00
2022-10-09T10:40:51.801Z,3095.00
2022-10-09T10:41:51.704Z,3020.00
2022-10-09T10:42:53.154Z,2973.00
2022-10-09T10:43:52.924Z,2977.00
2022-10-09T10:44:51.542Z,2812.00
2022-10-09T10:45:51.431Z,2734.00
2022-10-09T10:46:51.441Z,2589.00
2022-10-09T10:47:52.238Z,2603.00
2022-10-09T10:48:51.240Z,2551.00
2022-10-09T10:49:51.235Z,2539.00
2022-10-09T10:50:51.136Z,2541.00
2022-10-09T10:51:51.066Z,2656.00
2022-10-09T10:52:51.024Z,2552.00
2022-10-09T10:53:50.927Z,2505.00
2022-10-09T10:54:50.936Z,2462.00
2022-10-09T10:55:50.824Z,2426.00
2022-10-09T10:56:50.732Z,2394.00
2022-10-09T10:57:51.193Z,2365.00
2022-10-09T10:58:50.625Z,2315.00
2022-10-09T10:59:50.556Z,2261.00
2022-10-09T11:00:50.599Z,2226.00
2022-10-09T11:01:51.217Z,2159.00
2022-10-09T11:02:50.871Z,2123.00
2022-10-09T11:03:50.290Z,2127.00
2022-10-09T11:04:50.291Z,2023.00
2022-10-09T11:05:50.179Z,2019.00
2022-10-09T11:06:50.128Z,1956.00
2022-10-09T11:07:50.067Z,1947.00
2022-10-09T11:08:49.971Z,1888.00
2022-10-09T11:09:49.908Z,1836.00
2022-10-09T11:10:49.861Z,1771.00
2022-10-09T11:11:49.813Z,1772.00
2022-10-09T11:12:49.726Z,1724.00
2022-10-09T11:13:51.964Z,1695.00
2022-10-09T11:14:49.620Z,1672.00
2022-10-09T11:15:49.542Z,1647.00
2022-10-09T11:16:49.507Z,1616.00
2022-10-09T11:17:49.399Z,1529.00
2022-10-09T11:18:49.357Z,1431.00
2022-10-09T11:19:49.292Z,1371.00
2022-10-09T11:20:49.229Z,1338.00
2022-10-09T11:21:49.164Z,1301.00
2022-10-09T11:22:49.293Z,1253.00
2022-10-09T11:23:49.040Z,1204.00
2022-10-09T11:24:49.058Z,1177.00
2022-10-09T11:25:48.914Z,1151.00
2022-10-09T11:26:48.851Z,1142.00
2022-10-09T11:27:48.785Z,1089.00
2022-10-09T11:28:48.802Z,1032.00
2022-10-09T11:29:48.639Z,980.00
2022-10-09T11:30:48.581Z,949.00
2022-10-09T11:31:50.086Z,920.00
2022-10-09T11:32:48.471Z,903.00
2022-10-09T11:33:48.407Z,897.00
2022-10-09T11:34:48.408Z,893.00
2022-10-09T11:35:48.281Z,878.00
2022-10-09T11:36:48.199Z,867.00
2022-10-09T11:37:48.351Z,859.00
2022-10-09T11:38:48.090Z,859.00
2022-10-09T11:39:48.021Z,860.00
2022-10-09T11:40:47.956Z,864.00
2022-10-09T11:41:47.878Z,880.00
2022-10-09T11:42:47.829Z,912.00
2022-10-09T11:43:50.177Z,931.00
2022-10-09T11:44:47.734Z,897.00
2022-10-09T11:45:47.716Z,874.00
2022-10-09T11:46:47.581Z,876.00
2022-10-09T11:47:47.865Z,882.00
2022-10-09T11:48:47.468Z,876.00
2022-10-09T11:49:47.395Z,878.00
2022-10-09T11:50:47.323Z,907.00
2022-10-09T11:51:47.253Z,973.00
2022-10-09T11:52:47.220Z,974.00
2022-10-09T11:53:47.126Z,991.00
2022-10-09T11:54:47.191Z,1000.00
2022-10-09T11:55:47.017Z,988.00
2022-10-09T11:56:46.936Z,971.00
2022-10-09T11:57:47.218Z,614.00
2022-10-09T11:58:46.806Z,937.00
2022-10-09T11:59:46.756Z,1722.00
2022-10-09T12:00:46.711Z,942.00
2022-10-09T12:01:49.728Z,965.00
2022-10-09T12:02:46.627Z,323.00
2022-10-09T12:03:46.491Z,2477.00
2022-10-09T12:04:55.218Z,1729.00
2022-10-09T12:05:46.383Z,843.00
2022-10-09T12:06:46.317Z,5398.00
2022-10-09T12:07:46.270Z,2602.00
2022-10-09T12:08:46.176Z,1514.00
2022-10-09T12:09:46.114Z,1042.00
2022-10-09T12:10:46.051Z,1048.00
2022-10-09T12:11:45.986Z,1045.00
2022-10-09T12:12:45.932Z,875.00
2022-10-09T12:13:45.873Z,989.00
2022-10-09T12:14:45.831Z,942.00
2022-10-09T12:15:45.740Z,936.00
2022-10-09T12:16:45.792Z,946.00
2022-10-09T12:17:45.624Z,1029.00
2022-10-09T12:18:45.555Z,980.00
2022-10-09T12:19:45.497Z,895.00
2022-10-09T12:20:45.411Z,876.00
2022-10-09T12:21:45.356Z,871.00
2022-10-09T12:23:01.472Z,842.00
2022-10-09T12:23:45.231Z,598.00
2022-10-09T12:24:45.198Z,1615.00
2022-10-09T12:25:45.128Z,1385.00
2022-10-09T12:26:45.045Z,382.00
2022-10-09T12:27:44.981Z,2428.00
2022-10-09T12:28:44.986Z,1186.00
2022-10-09T12:29:44.846Z,878.00
2022-10-09T12:30:47.684Z,711.00
2022-10-09T12:31:45.524Z,821.00
2022-10-09T12:32:44.672Z,1255.00
2022-10-09T12:33:44.600Z,713.00
2022-10-09T12:34:44.562Z,1043.00
2022-10-09T12:35:44.460Z,959.00
2022-10-09T12:36:44.406Z,830.00
2022-10-09T12:37:45.118Z,838.00
2022-10-09T12:38:44.284Z,797.00
2022-10-09T12:39:44.231Z,716.00
2022-10-09T12:40:44.187Z,1118.00